Time;durP1;ratioP1;P1;durP2;ratioP2;P2;SDS_P1;SDS_P2;PMS_P1;PMS_P2;Temp;Humidity;BMP_temperature;BMP_pressure;BME280_temperature;BME280_humidity;BME280_pressure;Samples;Min_cycle;Max_cycle;Signal;HPM_P1;HPM_P2
2023/11/27 00:00:16;;;;;;;1.90;1.17;;;20.30;38.80;;;;;;5033333;28;20034;-59
2023/11/27 00:02:42;;;;;;;2.30;1.33;;;20.30;38.70;;;;;;5034033;28;20032;-60
2023/11/27 00:05:08;;;;;;;3.47;1.60;;;20.30;38.70;;;;;;5032536;28;20102;-60
2023/11/27 00:07:34;;;;;;;1.85;1.20;;;20.30;38.70;;;;;;5015102;28;20423;-58
2023/11/27 00:10:00;;;;;;;1.83;1.30;;;20.30;38.80;;;;;;5015420;28;20071;-56
2023/11/27 00:12:26;;;;;;;1.98;1.38;;;20.30;38.70;;;;;;5033691;28;20022;-56
2023/11/27 00:14:52;;;;;;;2.97;1.77;;;20.30;38.70;;;;;;5032908;28;20033;-57
2023/11/27 00:17:18;;;;;;;2.58;1.70;;;20.30;38.70;;;;;;5014926;28;20134;-59
2023/11/27 00:19:44;;;;;;;2.42;1.75;;;20.30;38.70;;;;;;5033582;28;20104;-61
2023/11/27 00:22:10;;;;;;;1.75;1.30;;;20.30;38.70;;;;;;5034193;28;20080;-59
2023/11/27 00:24:36;;;;;;;2.03;1.65;;;20.30;38.70;;;;;;5019744;28;20442;-60
2023/11/27 00:27:02;;;;;;;2.08;1.50;;;20.30;38.70;;;;;;5033189;28;20101;-53
2023/11/27 00:29:28;;;;;;;2.10;1.20;;;20.30;38.70;;;;;;5019664;28;20339;-55
2023/11/27 00:31:54;;;;;;;3.28;1.60;;;20.30;38.70;;;;;;5015244;28;20059;-58
2023/11/27 00:34:21;;;;;;;2.70;1.33;;;20.30;38.70;;;;;;5015764;28;20032;-58
2023/11/27 00:36:47;;;;;;;2.60;1.40;;;20.30;38.70;;;;;;5033458;28;20030;-61
2023/11/27 00:39:13;;;;;;;2.58;1.30;;;20.20;38.70;;;;;;5031908;28;20041;-55
2023/11/27 00:41:39;;;;;;;2.10;1.52;;;20.20;38.70;;;;;;5017083;28;20505;-55
2023/11/27 00:44:05;;;;;;;2.22;1.30;;;20.20;38.70;;;;;;5034375;28;20056;-57
2023/11/27 00:46:31;;;;;;;2.53;1.35;;;20.30;38.80;;;;;;5052567;28;20025;-60
2023/11/27 00:48:57;;;;;;;1.95;1.40;;;20.20;38.70;;;;;;5052814;28;20135;-55
2023/11/27 00:51:22;;;;;;;2.05;1.45;;;20.20;38.70;;;;;;5052913;28;20017;-60
2023/11/27 00:53:48;;;;;;;1.63;1.40;;;20.20;38.80;;;;;;5035580;28;20021;-59
2023/11/27 00:56:14;;;;;;;2.00;1.02;;;20.20;38.80;;;;;;5052458;28;20021;-59
2023/11/27 00:58:40;;;;;;;1.63;1.00;;;20.20;38.80;;;;;;5035243;28;20095;-58
2023/11/27 01:01:06;;;;;;;2.45;1.20;;;20.20;38.80;;;;;;5052535;28;20055;-59
2023/11/27 01:03:32;;;;;;;2.38;1.42;;;20.20;38.80;;;;;;5035152;28;20029;-62
2023/11/27 01:05:58;;;;;;;1.65;1.20;;;20.10;38.80;;;;;;5035092;28;20031;-57
2023/11/27 01:08:24;;;;;;;1.58;0.93;;;20.10;38.80;;;;;;5052035;28;20063;-57
2023/11/27 01:10:51;;;;;;;1.98;1.10;;;20.10;38.80;;;;;;5034763;28;20116;-56
2023/11/27 01:13:17;;;;;;;2.03;1.40;;;20.10;38.80;;;;;;5051738;28;20025;-54
2023/11/27 01:15:43;;;;;;;2.60;1.00;;;20.10;38.80;;;;;;5035584;28;20059;-58
2023/11/27 01:18:09;;;;;;;1.70;1.20;;;20.10;38.80;;;;;;5051765;28;20061;-60
2023/11/27 01:20:34;;;;;;;1.60;1.08;;;20.10;38.80;;;;;;5052452;28;20028;-58
2023/11/27 01:23:00;;;;;;;2.55;1.40;;;20.10;38.80;;;;;;5034843;28;20082;-60
2023/11/27 01:25:26;;;;;;;1.40;1.00;;;20.10;38.80;;;;;;5034634;28;20033;-56
2023/11/27 01:27:52;;;;;;;2.58;1.20;;;20.10;39.50;;;;;;5034887;28;20040;-58
2023/11/27 01:30:19;;;;;;;1.80;0.90;;;20.10;38.80;;;;;;5052322;28;20029;-55
2023/11/27 01:32:46;;;;;;;1.77;1.10;;;20.10;38.80;;;;;;5049280;28;20056;-55
2023/11/27 01:35:12;;;;;;;1.60;0.98;;;20.10;38.80;;;;;;5034118;28;20020;-60
2023/11/27 01:37:37;;;;;;;1.50;1.05;;;20.10;38.80;;;;;;5031641;28;20500;-54
2023/11/27 01:40:04;;;;;;;1.70;1.13;;;20.10;38.80;;;;;;5014863;28;20107;-58
2023/11/27 01:42:30;;;;;;;1.52;0.90;;;20.00;38.70;;;;;;5012420;28;20179;-58
2023/11/27 01:44:56;;;;;;;2.38;1.10;;;20.10;38.80;;;;;;5032991;28;20112;-56
2023/11/27 01:47:24;;;;;;;1.45;0.90;;;20.00;38.80;;;;;;5015064;28;20044;-56
2023/11/27 01:49:50;;;;;;;2.20;1.20;;;20.00;38.70;;;;;;5032563;28;20518;-58
2023/11/27 01:52:17;;;;;;;2.85;1.35;;;20.00;38.80;;;;;;5014480;28;20064;-58
2023/11/27 01:54:44;;;;;;;2.03;1.50;;;20.00;38.70;;;;;;5014850;28;20338;-58
2023/11/27 01:57:15;;;;;;;1.90;1.02;;;20.00;38.70;;;;;;5032736;28;20037;-59
2023/11/27 01:59:50;;;;;;;2.78;1.50;;;20.00;39.30;;;;;;5014223;28;20031;-61
2023/11/27 02:02:16;;;;;;;1.83;1.10;;;20.00;38.60;;;;;;4998439;28;20069;-62
2023/11/27 02:04:42;;;;;;;2.53;1.10;;;20.00;38.60;;;;;;5014240;28;20080;-63
2023/11/27 02:07:10;;;;;;;1.77;1.20;;;20.00;38.70;;;;;;5013887;28;20088;-59
2023/11/27 02:09:36;;;;;;;1.95;1.25;;;20.00;38.70;;;;;;5035860;28;20092;-58
2023/11/27 02:12:02;;;;;;;2.63;1.10;;;20.00;38.60;;;;;;5018316;28;20025;-57
2023/11/27 02:14:29;;;;;;;1.52;0.90;;;20.00;38.60;;;;;;5018306;28;20057;-56
2023/11/27 02:16:55;;;;;;;1.98;1.40;;;20.00;38.60;;;;;;5017656;28;20064;-57
2023/11/27 02:19:21;;;;;;;1.73;0.93;;;20.00;38.60;;;;;;5017498;28;20136;-61
2023/11/27 02:21:47;;;;;;;1.90;1.20;;;20.00;38.60;;;;;;5035490;28;20508;-60
2023/11/27 02:24:12;;;;;;;2.20;1.10;;;19.90;38.50;;;;;;5035441;28;20025;-57
2023/11/27 02:26:38;;;;;;;1.73;1.20;;;19.90;38.50;;;;;;5018576;28;20442;-59
2023/11/27 02:29:04;;;;;;;2.72;1.23;;;19.90;38.50;;;;;;5018174;28;20353;-57
2023/11/27 02:31:31;;;;;;;1.83;1.20;;;19.90;38.50;;;;;;5035769;28;20017;-58
2023/11/27 02:33:57;;;;;;;2.45;1.13;;;19.90;38.50;;;;;;5034951;28;20124;-61
2023/11/27 02:36:25;;;;;;;1.58;1.05;;;19.90;38.50;;;;;;5033418;28;20021;-56
2023/11/27 02:38:51;;;;;;;3.03;1.13;;;19.90;38.50;;;;;;5042551;28;20045;-59
2023/11/27 02:41:16;;;;;;;1.63;1.13;;;19.90;38.50;;;;;;5044392;28;20030;-58
2023/11/27 02:43:42;;;;;;;2.13;1.15;;;19.90;38.50;;;;;;5041347;28;20033;-58
2023/11/27 02:46:08;;;;;;;1.75;1.15;;;19.90;38.50;;;;;;5030026;28;20056;-59
2023/11/27 02:48:34;;;;;;;2.75;1.27;;;19.90;38.50;;;;;;5023086;28;20056;-56
2023/11/27 02:51:00;;;;;;;1.80;0.90;;;19.90;38.50;;;;;;5041572;28;20021;-59
2023/11/27 02:53:26;;;;;;;1.50;1.17;;;19.90;38.50;;;;;;5009752;28;20045;-59
2023/11/27 02:55:52;;;;;;;2.78;1.38;;;19.90;38.50;;;;;;5026689;28;20030;-57
2023/11/27 02:58:18;;;;;;;3.15;1.45;;;19.90;38.50;;;;;;5030088;28;20100;-60
2023/11/27 03:00:44;;;;;;;2.60;1.42;;;19.90;38.50;;;;;;5050076;28;20029;-60
2023/11/27 03:03:10;;;;;;;1.83;1.00;;;19.90;38.40;;;;;;5043025;28;20041;-58
2023/11/27 03:05:35;;;;;;;1.67;1.20;;;19.80;38.40;;;;;;5030130;28;20476;-59
2023/11/27 03:08:02;;;;;;;1.90;0.93;;;19.80;38.40;;;;;;5036352;28;20028;-59
2023/11/27 03:10:28;;;;;;;2.47;1.20;;;19.80;38.40;;;;;;5044072;28;20051;-58
2023/11/27 03:12:54;;;;;;;1.98;0.85;;;19.80;38.40;;;;;;5019819;28;20468;-54
2023/11/27 03:15:20;;;;;;;1.48;1.20;;;19.80;38.40;;;;;;5047977;28;20067;-56
2023/11/27 03:17:47;;;;;;;2.13;1.13;;;19.80;38.30;;;;;;5023642;28;20083;-57
2023/11/27 03:20:13;;;;;;;1.98;1.35;;;19.80;38.40;;;;;;5036993;28;20616;-57
2023/11/27 03:22:42;;;;;;;2.83;1.48;;;19.80;38.30;;;;;;5043312;28;20064;-59
2023/11/27 03:25:09;;;;;;;2.20;1.20;;;19.80;38.30;;;;;;5040155;28;20025;-59
2023/11/27 03:27:35;;;;;;;2.47;1.20;;;19.80;38.40;;;;;;5035700;28;20071;-61
2023/11/27 03:30:02;;;;;;;1.65;1.00;;;19.80;38.30;;;;;;5031582;28;20033;-61
2023/11/27 03:32:28;;;;;;;1.70;1.15;;;19.80;38.40;;;;;;5026180;28;20022;-58
2023/11/27 03:34:54;;;;;;;2.28;1.10;;;19.80;38.30;;;;;;5040648;28;20483;-59
2023/11/27 03:37:20;;;;;;;2.28;1.05;;;19.80;38.30;;;;;;5045346;28;20055;-57
2023/11/27 03:39:45;;;;;;;1.88;1.13;;;19.80;38.40;;;;;;5025864;28;20025;-55
2023/11/27 03:42:11;;;;;;;2.45;1.27;;;19.80;38.30;;;;;;5028515;28;20356;-58
2023/11/27 03:44:37;;;;;;;2.38;1.08;;;19.80;38.40;;;;;;5045354;28;20029;-57
2023/11/27 03:47:03;;;;;;;2.70;1.38;;;19.70;38.30;;;;;;5030232;28;20460;-60
2023/11/27 03:49:29;;;;;;;1.65;1.20;;;19.70;38.30;;;;;;5032785;28;20094;-59
2023/11/27 03:51:55;;;;;;;1.77;1.20;;;19.70;38.30;;;;;;5044207;28;20049;-57
2023/11/27 03:54:22;;;;;;;2.35;1.27;;;19.80;38.30;;;;;;5028074;28;20025;-60
2023/11/27 03:56:47;;;;;;;2.45;1.27;;;19.80;38.30;;;;;;5042787;28;20528;-60
2023/11/27 03:59:13;;;;;;;2.95;1.40;;;19.70;38.30;;;;;;5024338;28;20448;-62
2023/11/27 04:01:39;;;;;;;2.13;1.25;;;19.70;38.30;;;;;;5048079;28;20033;-60
2023/11/27 04:04:05;;;;;;;1.52;1.08;;;19.70;38.30;;;;;;5042389;28;20037;-61
2023/11/27 04:06:34;;;;;;;1.90;1.08;;;19.70;38.30;;;;;;5020081;28;20587;-56
2023/11/27 04:09:01;;;;;;;3.10;1.25;;;19.70;38.30;;;;;;5028540;28;20416;-58
2023/11/27 04:11:27;;;;;;;2.08;1.00;;;19.70;38.30;;;;;;5044671;28;20159;-57
2023/11/27 04:13:54;;;;;;;2.22;1.13;;;19.70;38.30;;;;;;5043660;28;20353;-55
2023/11/27 04:16:20;;;;;;;2.05;1.10;;;19.70;38.30;;;;;;5020976;28;20068;-57
2023/11/27 04:18:48;;;;;;;2.20;1.00;;;19.70;38.30;;;;;;5027610;28;20036;-59
2023/11/27 04:21:18;;;;;;;2.28;1.15;;;19.70;38.30;;;;;;5029084;28;20445;-61
2023/11/27 04:23:48;;;;;;;1.67;1.00;;;19.70;38.40;;;;;;5040261;28;20021;-59
2023/11/27 04:26:15;;;;;;;1.73;1.08;;;19.70;38.40;;;;;;5012127;28;20448;-58
2023/11/27 04:28:42;;;;;;;1.50;0.80;;;19.70;38.40;;;;;;5040343;28;20021;-62
2023/11/27 04:31:08;;;;;;;1.98;1.00;;;19.70;38.40;;;;;;5039468;28;20021;-57
2023/11/27 04:33:35;;;;;;;2.13;0.90;;;19.70;38.40;;;;;;5042665;28;20029;-53
2023/11/27 04:36:01;;;;;;;1.35;0.70;;;19.70;38.40;;;;;;5041702;28;20116;-56
2023/11/27 04:38:27;;;;;;;2.58;1.10;;;19.60;38.40;;;;;;5042397;28;20041;-56
2023/11/27 04:40:53;;;;;;;1.00;0.68;;;19.70;38.50;;;;;;5026275;28;20075;-58
2023/11/27 04:43:22;;;;;;;2.30;1.00;;;19.70;38.40;;;;;;5036996;28;20069;-59
2023/11/27 04:45:48;;;;;;;1.65;0.88;;;19.70;38.50;;;;;;5026183;28;20079;-56
2023/11/27 04:48:14;;;;;;;1.00;0.68;;;19.60;38.40;;;;;;5043550;28;20022;-55
2023/11/27 04:50:39;;;;;;;1.52;0.73;;;19.70;38.50;;;;;;5038846;28;20030;-62
2023/11/27 04:53:05;;;;;;;2.45;0.70;;;19.60;38.40;;;;;;5039397;28;20091;-61
2023/11/27 04:55:32;;;;;;;1.20;0.70;;;19.60;38.40;;;;;;5024460;28;20432;-58
2023/11/27 04:57:58;;;;;;;1.85;1.08;;;19.60;38.40;;;;;;5025934;28;20543;-59
2023/11/27 05:00:24;;;;;;;1.15;0.60;;;19.60;38.40;;;;;;5038749;28;20095;-59
2023/11/27 05:02:50;;;;;;;1.15;0.68;;;19.60;38.50;;;;;;5043076;28;20095;-56
2023/11/27 05:05:16;;;;;;;0.80;0.60;;;19.60;38.50;;;;;;5040861;28;20029;-53
2023/11/27 05:07:42;;;;;;;0.90;0.60;;;19.60;38.50;;;;;;5040423;28;20035;-59
2023/11/27 05:10:10;;;;;;;0.77;0.50;;;19.60;38.50;;;;;;5046617;28;20065;-57
2023/11/27 05:12:37;;;;;;;0.77;0.57;;;19.60;38.50;;;;;;5038717;28;20039;-58
2023/11/27 05:15:06;;;;;;;1.02;0.63;;;19.60;38.50;;;;;;5041373;28;20020;-56
2023/11/27 05:17:31;;;;;;;1.17;0.47;;;19.60;38.60;;;;;;5043140;28;20029;-57
2023/11/27 05:19:57;;;;;;;1.73;0.75;;;19.60;38.50;;;;;;5044703;28;20365;-58
2023/11/27 05:22:23;;;;;;;0.65;0.50;;;19.60;38.50;;;;;;5043195;28;20035;-59
2023/11/27 05:24:49;;;;;;;0.50;0.40;;;19.60;38.50;;;;;;5026791;28;20037;-58
2023/11/27 05:27:15;;;;;;;1.52;0.50;;;19.60;38.50;;;;;;5042736;28;20049;-57
2023/11/27 05:29:40;;;;;;;1.20;0.63;;;19.50;38.50;;;;;;5042458;28;20034;-60
2023/11/27 05:32:09;;;;;;;0.82;0.50;;;19.60;38.60;;;;;;5024800;28;20363;-57
2023/11/27 05:34:38;;;;;;;0.88;0.50;;;19.50;38.50;;;;;;5026181;28;20110;-57
2023/11/27 05:37:08;;;;;;;0.50;0.40;;;19.50;38.50;;;;;;5041880;28;20038;-59
2023/11/27 05:39:35;;;;;;;1.10;0.52;;;19.50;38.50;;;;;;5029797;28;20380;-61
2023/11/27 05:42:04;;;;;;;0.60;0.38;;;19.50;38.50;;;;;;5033715;28;20128;-59
2023/11/27 05:44:31;;;;;;;0.73;0.50;;;19.50;38.50;;;;;;5035785;28;20405;-59
2023/11/27 05:46:57;;;;;;;0.88;0.50;;;19.50;38.50;;;;;;5035943;28;20060;-61
2023/11/27 05:49:23;;;;;;;0.73;0.40;;;19.50;38.50;;;;;;5036783;28;20025;-55
2023/11/27 05:51:51;;;;;;;0.47;0.40;;;19.50;38.50;;;;;;5035801;28;20033;-59
2023/11/27 05:54:16;;;;;;;0.50;0.40;;;19.50;38.50;;;;;;5035696;28;20028;-60
2023/11/27 05:56:42;;;;;;;0.88;0.43;;;19.50;38.50;;;;;;5035177;28;20025;-61
2023/11/27 05:59:08;;;;;;;1.25;0.65;;;19.50;38.50;;;;;;5035394;28;20022;-59
2023/11/27 06:01:34;;;;;;;0.57;0.40;;;19.50;38.50;;;;;;5018114;28;20030;-59
2023/11/27 06:04:00;;;;;;;1.00;0.40;;;19.50;38.50;;;;;;5035816;28;20079;-61
2023/11/27 06:06:26;;;;;;;0.73;0.43;;;19.50;38.50;;;;;;5034759;28;20357;-57
2023/11/27 06:08:52;;;;;;;0.63;0.50;;;19.50;38.50;;;;;;5017255;28;20503;-58
2023/11/27 06:11:17;;;;;;;0.40;0.30;;;19.50;38.50;;;;;;5036068;28;20025;-56
2023/11/27 06:13:43;;;;;;;0.80;0.50;;;19.50;38.50;;;;;;5035358;28;20036;-58
2023/11/27 06:16:10;;;;;;;0.45;0.30;;;19.50;38.50;;;;;;5018043;28;20037;-59
2023/11/27 06:18:35;;;;;;;1.08;0.45;;;19.50;38.50;;;;;;5016850;28;20479;-57
2023/11/27 06:21:03;;;;;;;1.05;0.40;;;19.50;38.50;;;;;;5018011;28;20026;-57
2023/11/27 06:23:29;;;;;;;0.50;0.35;;;19.50;38.50;;;;;;5035406;28;20033;-62
2023/11/27 06:25:56;;;;;;;0.60;0.40;;;19.50;38.50;;;;;;5035710;28;20045;-58
2023/11/27 06:28:22;;;;;;;0.70;0.60;;;19.40;38.40;;;;;;5015181;28;20021;-57
2023/11/27 06:30:50;;;;;;;1.73;0.57;;;19.40;38.40;;;;;;5018105;28;20036;-60
2023/11/27 06:33:16;;;;;;;0.45;0.40;;;19.40;38.40;;;;;;5035128;28;20041;-60
2023/11/27 06:35:42;;;;;;;0.70;0.40;;;19.50;38.50;;;;;;5017009;28;20465;-59
2023/11/27 06:38:08;;;;;;;1.48;0.50;;;19.50;38.50;;;;;;5035169;28;20037;-60
2023/11/27 06:40:34;;;;;;;0.70;0.40;;;19.40;38.40;;;;;;5034567;28;20091;-58
2023/11/27 06:43:00;;;;;;;0.98;0.40;;;19.40;39.10;;;;;;5034483;28;20033;-56
2023/11/27 06:45:26;;;;;;;0.30;0.30;;;19.40;38.40;;;;;;5034799;28;20033;-52
2023/11/27 06:47:52;;;;;;;0.70;0.40;;;19.40;38.40;;;;;;5014800;28;20117;-51
2023/11/27 06:50:18;;;;;;;0.40;0.40;;;19.40;38.40;;;;;;5034907;28;20026;-57
2023/11/27 06:52:45;;;;;;;0.45;0.30;;;19.40;38.40;;;;;;5034248;28;20041;-60
2023/11/27 06:55:11;;;;;;;0.47;0.30;;;19.40;38.40;;;;;;5016836;28;20038;-59
2023/11/27 06:57:37;;;;;;;0.47;0.40;;;19.40;38.50;;;;;;5016792;28;20030;-59
2023/11/27 07:00:05;;;;;;;0.80;0.50;;;19.40;38.40;;;;;;5016356;28;20083;-62
2023/11/27 07:02:31;;;;;;;1.05;0.50;;;19.40;38.40;;;;;;5034130;28;20056;-57
2023/11/27 07:04:57;;;;;;;0.50;0.50;;;19.40;38.40;;;;;;5033677;28;20087;-60
2023/11/27 07:07:24;;;;;;;0.82;0.40;;;19.40;38.40;;;;;;5033954;28;20029;-60
2023/11/27 07:09:49;;;;;;;0.52;0.40;;;19.40;38.40;;;;;;5034353;28;20177;-60
2023/11/27 07:12:17;;;;;;;0.93;0.50;;;19.40;38.40;;;;;;5033767;28;20112;-55
2023/11/27 07:14:43;;;;;;;0.50;0.45;;;19.40;38.40;;;;;;5034561;28;20021;-55
2023/11/27 07:17:09;;;;;;;0.52;0.30;;;19.40;38.40;;;;;;5016650;28;20025;-55
2023/11/27 07:19:35;;;;;;;1.52;0.70;;;19.40;38.50;;;;;;5033836;28;20053;-61
2023/11/27 07:22:01;;;;;;;0.85;0.35;;;19.40;38.40;;;;;;5033842;28;20126;-59
2023/11/27 07:24:27;;;;;;;0.60;0.30;;;19.40;38.40;;;;;;5016419;28;20048;-57
2023/11/27 07:26:54;;;;;;;0.75;0.38;;;19.40;38.40;;;;;;5034250;28;20021;-60
2023/11/27 07:29:20;;;;;;;0.77;0.40;;;19.40;38.40;;;;;;5034279;28;20329;-59
2023/11/27 07:31:47;;;;;;;0.63;0.30;;;19.30;38.40;;;;;;5034190;28;20021;-59
2023/11/27 07:34:13;;;;;;;0.82;0.30;;;19.40;38.50;;;;;;5015322;28;20419;-59
2023/11/27 07:36:40;;;;;;;0.82;0.38;;;19.40;38.40;;;;;;5033611;28;20033;-59
2023/11/27 07:39:07;;;;;;;0.80;0.40;;;19.40;38.40;;;;;;5039371;28;20048;-58
2023/11/27 07:41:34;;;;;;;0.93;0.50;;;19.40;38.40;;;;;;5050018;28;20032;-58
2023/11/27 07:44:00;;;;;;;0.70;0.30;;;19.40;37.90;;;;;;5039746;28;20056;-54
2023/11/27 07:46:26;;;;;;;1.08;0.50;;;19.40;38.40;;;;;;5038588;28;20053;-57
2023/11/27 07:48:52;;;;;;;0.73;0.30;;;19.40;38.70;;;;;;5040497;28;20417;-59
2023/11/27 07:51:18;;;;;;;0.95;0.30;;;19.40;38.80;;;;;;5046989;28;20017;-57
2023/11/27 07:53:44;;;;;;;1.05;0.40;;;19.40;38.90;;;;;;5041614;28;20098;-58
2023/11/27 07:56:10;;;;;;;0.80;0.50;;;19.40;39.00;;;;;;5039835;28;20086;-56
2023/11/27 07:58:36;;;;;;;1.85;0.50;;;19.40;39.10;;;;;;5042529;28;20052;-61
2023/11/27 08:01:03;;;;;;;1.27;0.52;;;19.40;39.10;;;;;;5043025;28;20432;-58
2023/11/27 08:03:29;;;;;;;1.13;0.50;;;19.40;39.20;;;;;;5020268;28;20120;-60
2023/11/27 08:05:55;;;;;;;1.23;0.82;;;19.40;39.10;;;;;;5046978;28;20409;-59
2023/11/27 08:08:21;;;;;;;0.80;0.50;;;19.40;39.10;;;;;;5040749;28;20021;-58
2023/11/27 08:10:47;;;;;;;1.13;0.57;;;19.40;39.10;;;;;;5025844;28;20040;-59
2023/11/27 08:13:12;;;;;;;0.77;0.40;;;19.40;39.00;;;;;;5045970;28;20121;-58
2023/11/27 08:15:38;;;;;;;0.68;0.43;;;19.40;39.00;;;;;;5040698;28;20403;-61
2023/11/27 08:18:05;;;;;;;0.47;0.32;;;19.40;39.60;;;;;;5026966;28;20029;-59
2023/11/27 08:20:32;;;;;;;0.95;0.35;;;19.40;39.00;;;;;;5043651;28;20064;-58
2023/11/27 08:22:59;;;;;;;1.10;0.47;;;19.40;39.00;;;;;;5036794;28;20041;-57
2023/11/27 08:25:26;;;;;;;1.75;0.50;;;19.40;39.00;;;;;;5043306;28;20044;-58
2023/11/27 08:27:53;;;;;;;0.65;0.38;;;19.40;38.90;;;;;;5037168;28;20025;-60
2023/11/27 08:30:19;;;;;;;1.38;0.47;;;19.50;38.90;;;;;;5020301;28;20365;-55
2023/11/27 08:32:49;;;;;;;0.75;0.38;;;19.50;38.90;;;;;;5018689;28;20044;-59
2023/11/27 08:35:15;;;;;;;0.57;0.40;;;19.50;38.80;;;;;;5038049;28;20022;-53
2023/11/27 08:37:41;;;;;;;0.60;0.40;;;19.50;38.80;;;;;;5036104;28;20071;-63
2023/11/27 08:40:09;;;;;;;1.00;0.43;;;19.50;38.80;;;;;;5032233;28;20097;-58
2023/11/27 08:42:36;;;;;;;0.77;0.50;;;19.50;38.80;;;;;;5033193;28;20138;-59
2023/11/27 08:45:16;;;;;;;0.80;0.45;;;19.50;38.70;;;;;;5015253;28;20025;-59
2023/11/27 08:47:52;;;;;;;0.60;0.40;;;19.50;38.60;;;;;;5031805;28;20028;-55
2023/11/27 08:50:19;;;;;;;1.63;0.68;;;19.50;38.60;;;;;;5030796;28;20017;-54
2023/11/27 08:52:45;;;;;;;0.70;0.50;;;19.50;38.60;;;;;;5015083;28;20025;-57
2023/11/27 08:55:18;;;;;;;0.77;0.57;;;19.50;38.60;;;;;;5014932;28;20464;-58
2023/11/27 08:57:48;;;;;;;1.60;0.45;;;19.60;38.60;;;;;;5031253;28;20083;-62
2023/11/27 09:00:18;;;;;;;1.27;0.70;;;19.60;38.60;;;;;;5015250;28;20033;-59
2023/11/27 09:02:44;;;;;;;1.00;0.60;;;19.60;38.60;;;;;;5032391;28;20120;-58
2023/11/27 09:05:10;;;;;;;0.60;0.50;;;19.60;38.60;;;;;;5033247;28;20033;-57
2023/11/27 09:07:37;;;;;;;0.88;0.57;;;19.60;38.60;;;;;;5014345;28;20067;-60
2023/11/27 09:10:04;;;;;;;0.50;0.40;;;19.60;38.60;;;;;;5032069;28;20025;-60
2023/11/27 09:12:31;;;;;;;0.65;0.40;;;19.60;38.60;;;;;;5033086;28;20076;-60
2023/11/27 09:14:57;;;;;;;0.75;0.60;;;19.60;38.60;;;;;;5030343;28;20072;-61
2023/11/27 09:17:23;;;;;;;1.08;0.40;;;19.70;38.50;;;;;;5018561;28;20025;-57
2023/11/27 09:19:49;;;;;;;0.98;0.40;;;19.70;38.50;;;;;;5037850;28;20029;-59
2023/11/27 09:22:15;;;;;;;1.13;0.40;;;19.70;38.50;;;;;;5036843;28;20033;-60
2023/11/27 09:24:42;;;;;;;1.30;0.50;;;19.70;38.50;;;;;;5037339;28;20032;-56
2023/11/27 09:27:08;;;;;;;0.90;0.50;;;19.70;38.40;;;;;;5037406;28;20357;-57
2023/11/27 09:29:34;;;;;;;0.90;0.52;;;19.70;38.40;;;;;;5036870;28;20021;-63
2023/11/27 09:32:03;;;;;;;0.57;0.43;;;19.70;38.40;;;;;;5018692;28;20040;-61
2023/11/27 09:34:29;;;;;;;0.88;0.40;;;19.70;38.40;;;;;;5019759;28;20041;-58
2023/11/27 09:36:55;;;;;;;1.15;0.50;;;19.80;38.50;;;;;;5036864;28;20025;-57
2023/11/27 09:39:21;;;;;;;0.63;0.30;;;19.80;38.50;;;;;;5035683;28;20391;-60
2023/11/27 09:41:48;;;;;;;0.80;0.50;;;19.80;38.50;;;;;;5039580;28;20123;-60
2023/11/27 09:44:15;;;;;;;0.40;0.30;;;19.80;38.40;;;;;;5039271;28;20068;-56
2023/11/27 09:46:43;;;;;;;0.47;0.43;;;19.80;38.40;;;;;;5056594;28;20021;-60
2023/11/27 09:49:10;;;;;;;0.30;0.30;;;19.90;38.50;;;;;;5056919;28;20024;-59
2023/11/27 09:51:38;;;;;;;0.85;0.50;;;19.90;38.40;;;;;;5056801;28;20569;-59
2023/11/27 09:54:06;;;;;;;1.02;0.40;;;20.00;38.40;;;;;;5018252;28;20334;-59
2023/11/27 09:56:33;;;;;;;0.65;0.40;;;20.00;38.40;;;;;;5056654;28;20032;-57
2023/11/27 09:59:01;;;;;;;0.63;0.32;;;20.10;38.40;;;;;;5056876;28;20025;-60
2023/11/27 10:01:30;;;;;;;0.40;0.38;;;20.10;38.30;;;;;;5056663;28;20087;-60
2023/11/27 10:04:07;;;;;;;0.57;0.28;;;20.20;38.30;;;;;;5038555;28;20025;-60
2023/11/27 10:06:35;;;;;;;0.35;0.20;;;20.30;38.30;;;;;;5056420;28;20021;-58
2023/11/27 10:09:09;;;;;;;0.45;0.28;;;20.30;38.20;;;;;;5056449;28;20024;-59
2023/11/27 10:11:37;;;;;;;0.52;0.32;;;20.40;38.20;;;;;;5054340;28;20025;-58
2023/11/27 10:14:10;;;;;;;0.38;0.20;;;20.50;38.10;;;;;;5056464;28;20337;-57
2023/11/27 10:16:37;;;;;;;0.40;0.30;;;20.60;38.10;;;;;;5038262;28;20037;-57
2023/11/27 10:19:08;;;;;;;0.55;0.35;;;20.60;38.00;;;;;;5056127;28;20444;-58
2023/11/27 10:21:36;;;;;;;0.60;0.40;;;20.70;38.00;;;;;;5055803;28;20458;-59
2023/11/27 10:24:08;;;;;;;0.25;0.25;;;20.80;38.00;;;;;;5038344;28;20040;-58
2023/11/27 10:26:40;;;;;;;0.45;0.30;;;20.80;37.90;;;;;;5056230;28;20599;-59
2023/11/27 10:29:09;;;;;;;0.30;0.30;;;20.90;37.80;;;;;;5037365;28;20040;-59
2023/11/27 10:31:37;;;;;;;0.38;0.38;;;20.90;37.80;;;;;;5056265;28;20112;-56
2023/11/27 10:34:06;;;;;;;0.30;0.20;;;21.00;37.80;;;;;;5038978;28;20487;-57
2023/11/27 10:36:33;;;;;;;0.77;0.47;;;21.10;37.70;;;;;;5038517;28;20087;-57
2023/11/27 10:39:15;;;;;;;0.40;0.30;;;21.10;37.70;;;;;;5042601;28;20341;-58
2023/11/27 10:41:46;;;;;;;1.02;0.40;;;21.10;37.60;;;;;;5048457;28;20042;-61
2023/11/27 10:44:16;;;;;;;0.77;0.32;;;21.20;37.50;;;;;;5045188;28;20025;-60
2023/11/27 10:46:42;;;;;;;0.63;0.30;;;21.30;37.50;;;;;;5029527;28;20025;-60
2023/11/27 10:49:14;;;;;;;0.75;0.30;;;21.30;37.50;;;;;;5033405;28;20409;-60
2023/11/27 10:51:44;;;;;;;0.30;0.30;;;21.40;37.50;;;;;;5040959;28;20029;-59
2023/11/27 10:54:14;;;;;;;0.40;0.25;;;21.40;37.40;;;;;;5042687;28;20029;-59
2023/11/27 10:56:46;;;;;;;0.20;0.20;;;21.40;37.40;;;;;;5048284;28;20037;-57
2023/11/27 10:59:13;;;;;;;0.38;0.30;;;21.50;37.30;;;;;;5043385;28;20044;-61
2023/11/27 11:01:46;;;;;;;0.55;0.40;;;21.50;37.30;;;;;;5037716;28;20025;-57
2023/11/27 11:04:25;;;;;;;0.32;0.20;;;21.50;37.30;;;;;;5042012;28;20060;-62
2023/11/27 11:06:55;;;;;;;0.22;0.20;;;21.50;37.20;;;;;;5036705;28;20026;-58
2023/11/27 11:09:25;;;;;;;0.30;0.30;;;21.50;37.20;;;;;;5041867;28;20031;-57
2023/11/27 11:11:55;;;;;;;1.38;0.35;;;21.50;37.20;;;;;;5052162;28;20017;-59
2023/11/27 11:14:26;;;;;;;0.60;0.40;;;21.50;37.20;;;;;;5041854;28;20036;-57
2023/11/27 11:17:17;;;;;;;0.38;0.20;;;21.60;37.20;;;;;;5020776;28;20030;-59
2023/11/27 11:20:25;;;;;;;0.20;0.20;;;21.50;37.20;;;;;;5042040;28;20026;-57
2023/11/27 11:22:54;;;;;;;0.63;0.20;;;21.50;37.20;;;;;;5034586;28;20095;-56
2023/11/27 11:25:28;;;;;;;0.50;0.30;;;21.50;37.20;;;;;;5031712;28;20033;-59
2023/11/27 11:28:11;;;;;;;0.30;0.30;;;21.50;37.20;;;;;;5053025;28;20036;-58
2023/11/27 11:30:38;;;;;;;0.38;0.30;;;21.50;37.20;;;;;;5037317;28;20173;-59
2023/11/27 11:33:17;;;;;;;0.52;0.30;;;21.50;37.20;;;;;;5034619;28;20100;-60
2023/11/27 11:35:50;;;;;;;0.50;0.30;;;21.50;37.20;;;;;;5033726;28;20029;-58
2023/11/27 11:38:20;;;;;;;0.50;0.20;;;21.50;37.20;;;;;;5035158;28;20045;-60
2023/11/27 11:40:51;;;;;;;0.63;0.25;;;21.40;37.20;;;;;;5031910;28;20029;-58
2023/11/27 11:43:18;;;;;;;0.85;0.30;;;21.40;37.20;;;;;;5034796;28;20091;-59
2023/11/27 11:45:49;;;;;;;0.30;0.30;;;21.40;37.20;;;;;;5034608;28;20087;-59
2023/11/27 11:48:18;;;;;;;0.63;0.30;;;21.40;37.30;;;;;;5035508;28;20056;-60
2023/11/27 11:50:46;;;;;;;0.30;0.30;;;21.40;37.30;;;;;;5035869;28;20044;-58
2023/11/27 11:53:21;;;;;;;0.20;0.20;;;21.40;37.40;;;;;;5035216;28;20026;-58
2023/11/27 11:55:50;;;;;;;0.50;0.30;;;21.40;37.40;;;;;;5036026;28;20427;-58
2023/11/27 11:58:19;;;;;;;0.57;0.20;;;21.30;37.40;;;;;;5018694;28;20091;-58
2023/11/27 12:00:45;;;;;;;1.38;0.30;;;21.30;37.50;;;;;;5035234;28;20030;-57
2023/11/27 12:03:15;;;;;;;0.20;0.20;;;21.30;37.50;;;;;;5035736;28;20037;-59
2023/11/27 12:05:53;;;;;;;0.38;0.20;;;21.30;37.60;;;;;;5035261;28;20030;-61
2023/11/27 12:08:28;;;;;;;0.30;0.20;;;21.20;37.50;;;;;;5033799;28;20017;-61
2023/11/27 12:10:56;;;;;;;0.50;0.28;;;21.20;37.60;;;;;;5034188;28;20029;-60
2023/11/27 12:13:23;;;;;;;0.30;0.30;;;21.20;37.70;;;;;;5034353;28;20041;-59
2023/11/27 12:15:56;;;;;;;0.20;0.20;;;21.20;37.70;;;;;;5034632;28;20108;-60
2023/11/27 12:18:23;;;;;;;0.50;0.30;;;21.20;37.80;;;;;;5016852;28;20043;-58
2023/11/27 12:20:49;;;;;;;0.35;0.35;;;21.10;37.70;;;;;;5033957;28;20033;-62
2023/11/27 12:23:17;;;;;;;0.45;0.40;;;21.10;37.70;;;;;;5034137;28;20137;-61
2023/11/27 12:25:44;;;;;;;0.38;0.20;;;21.10;37.80;;;;;;5016481;28;20021;-59
2023/11/27 12:28:10;;;;;;;0.25;0.20;;;21.10;37.90;;;;;;5016116;28;20135;-58
2023/11/27 12:30:38;;;;;;;0.30;0.30;;;21.10;37.90;;;;;;5033123;28;20436;-59
2023/11/27 12:33:05;;;;;;;0.50;0.30;;;21.10;37.90;;;;;;5034056;28;20029;-60
2023/11/27 12:35:31;;;;;;;0.93;0.20;;;21.10;38.00;;;;;;5033800;28;20025;-57
2023/11/27 12:38:06;;;;;;;0.40;0.30;;;21.10;38.00;;;;;;5033807;28;20052;-61
2023/11/27 12:40:34;;;;;;;0.35;0.30;;;21.10;38.00;;;;;;5034213;28;20087;-57
2023/11/27 12:43:05;;;;;;;0.70;0.30;;;21.10;38.00;;;;;;5033746;28;20045;-54
2023/11/27 12:45:32;;;;;;;0.98;0.30;;;21.10;38.00;;;;;;5034995;28;20025;-59
2023/11/27 12:47:59;;;;;;;0.55;0.43;;;21.10;38.10;;;;;;5017666;28;20356;-57